Ext La Inmaculada, Puerto Rico
Current Conditions -  °F | °C
As of 4:53 AM on Tuesday 21 Oct 2014 (Local Time) from TJNR Reporting Station
Clear Clear  
Wind Chill: 80°   Ceiling: Unl
Heat Index: 84°   Visibility: 10mi
Dew Point: 73°   Wind: 5mph
Humidity: 79%   Direction: 90°E
Pressure: 29.93"   Gusts: NA
Location:  18.1853°N, 65.8667°W
Report Text: TJNR 210853Z AUTO 09004KT 10SM CLR 27/23 A2993 RMK AO2 SLP135 T02670228 55001
Loading
Personal Weather Stations






























Interactive Weather Map
Tropical Storm Tracking
New forecast layout! Learn more

10-Day Weather Forecast

Advertisements
Track Severe Weather on mobile